sensor_id;sensor_type;location;lat;lon;timestamp;P1;durP1;ratioP1;P2;durP2;ratioP2
76065;SDS011;64763;48.928;8.474;2023-04-10T00:01:00;9.38;;;5.75;;
76065;SDS011;64763;48.928;8.474;2023-04-10T00:03:25;12.50;;;6.80;;
76065;SDS011;64763;48.928;8.474;2023-04-10T00:05:51;10.10;;;6.53;;
76065;SDS011;64763;48.928;8.474;2023-04-10T00:08:19;9.77;;;6.00;;
76065;SDS011;64763;48.928;8.474;2023-04-10T00:10:45;9.80;;;6.32;;
76065;SDS011;64763;48.928;8.474;2023-04-10T00:13:11;11.07;;;6.28;;
76065;SDS011;64763;48.928;8.474;2023-04-10T00:15:36;9.40;;;6.00;;
76065;SDS011;64763;48.928;8.474;2023-04-10T00:18:01;10.27;;;6.03;;
76065;SDS011;64763;48.928;8.474;2023-04-10T00:20:27;8.00;;;5.50;;
76065;SDS011;64763;48.928;8.474;2023-04-10T00:22:52;11.38;;;6.22;;
76065;SDS011;64763;48.928;8.474;2023-04-10T00:25:18;10.68;;;5.97;;
76065;SDS011;64763;48.928;8.474;2023-04-10T00:27:44;11.63;;;5.50;;
76065;SDS011;64763;48.928;8.474;2023-04-10T00:30:09;11.50;;;6.60;;
76065;SDS011;64763;48.928;8.474;2023-04-10T00:32:35;10.52;;;6.40;;
76065;SDS011;64763;48.928;8.474;2023-04-10T00:35:00;10.27;;;6.40;;
76065;SDS011;64763;48.928;8.474;2023-04-10T00:37:25;11.02;;;6.72;;
76065;SDS011;64763;48.928;8.474;2023-04-10T00:39:51;10.23;;;6.15;;
76065;SDS011;64763;48.928;8.474;2023-04-10T00:42:16;10.00;;;6.05;;
76065;SDS011;64763;48.928;8.474;2023-04-10T00:44:42;9.32;;;5.80;;
76065;SDS011;64763;48.928;8.474;2023-04-10T00:47:07;11.40;;;6.28;;
76065;SDS011;64763;48.928;8.474;2023-04-10T00:49:33;11.73;;;7.20;;
76065;SDS011;64763;48.928;8.474;2023-04-10T00:51:58;10.70;;;6.32;;
76065;SDS011;64763;48.928;8.474;2023-04-10T00:54:24;10.00;;;5.78;;
76065;SDS011;64763;48.928;8.474;2023-04-10T00:56:49;10.52;;;6.10;;
76065;SDS011;64763;48.928;8.474;2023-04-10T00:59:15;10.63;;;6.15;;
76065;SDS011;64763;48.928;8.474;2023-04-10T01:01:40;9.48;;;5.80;;
76065;SDS011;64763;48.928;8.474;2023-04-10T01:04:06;9.82;;;5.95;;
76065;SDS011;64763;48.928;8.474;2023-04-10T01:09:34;9.85;;;5.55;;
76065;SDS011;64763;48.928;8.474;2023-04-10T01:14:48;9.07;;;5.72;;
76065;SDS011;64763;48.928;8.474;2023-04-10T01:20:22;9.02;;;5.30;;
76065;SDS011;64763;48.928;8.474;2023-04-10T01:30:47;8.27;;;5.20;;
76065;SDS011;64763;48.928;8.474;2023-04-10T01:33:19;9.18;;;5.22;;
76065;SDS011;64763;48.928;8.474;2023-04-10T01:35:49;9.95;;;6.10;;
76065;SDS011;64763;48.928;8.474;2023-04-10T01:38:16;9.90;;;5.38;;
76065;SDS011;64763;48.928;8.474;2023-04-10T01:40:43;10.32;;;5.68;;
76065;SDS011;64763;48.928;8.474;2023-04-10T01:43:14;9.10;;;5.22;;
76065;SDS011;64763;48.928;8.474;2023-04-10T01:45:40;8.43;;;5.40;;
76065;SDS011;64763;48.928;8.474;2023-04-10T01:48:07;8.68;;;5.15;;
76065;SDS011;64763;48.928;8.474;2023-04-10T01:50:33;8.85;;;5.28;;
76065;SDS011;64763;48.928;8.474;2023-04-10T01:52:59;10.10;;;5.90;;
76065;SDS011;64763;48.928;8.474;2023-04-10T01:55:24;10.05;;;6.63;;
76065;SDS011;64763;48.928;8.474;2023-04-10T01:57:51;10.60;;;5.90;;
76065;SDS011;64763;48.928;8.474;2023-04-10T02:00:17;10.13;;;5.80;;
76065;SDS011;64763;48.928;8.474;2023-04-10T02:02:43;9.23;;;5.35;;
76065;SDS011;64763;48.928;8.474;2023-04-10T02:05:08;10.40;;;6.40;;
76065;SDS011;64763;48.928;8.474;2023-04-10T02:10:09;9.50;;;5.78;;
76065;SDS011;64763;48.928;8.474;2023-04-10T02:12:37;9.30;;;5.82;;
76065;SDS011;64763;48.928;8.474;2023-04-10T02:15:04;10.55;;;5.80;;
76065;SDS011;64763;48.928;8.474;2023-04-10T02:17:32;10.63;;;6.57;;
76065;SDS011;64763;48.928;8.474;2023-04-10T02:19:58;10.38;;;6.03;;
76065;SDS011;64763;48.928;8.474;2023-04-10T02:22:24;9.35;;;5.40;;
76065;SDS011;64763;48.928;8.474;2023-04-10T02:24:51;10.02;;;5.53;;
76065;SDS011;64763;48.928;8.474;2023-04-10T02:27:26;12.50;;;6.40;;
76065;SDS011;64763;48.928;8.474;2023-04-10T02:29:53;11.30;;;5.82;;
76065;SDS011;64763;48.928;8.474;2023-04-10T02:32:18;9.70;;;5.90;;
76065;SDS011;64763;48.928;8.474;2023-04-10T02:34:44;9.43;;;5.78;;
76065;SDS011;64763;48.928;8.474;2023-04-10T02:37:09;9.02;;;5.75;;
76065;SDS011;64763;48.928;8.474;2023-04-10T02:39:35;9.52;;;5.43;;
76065;SDS011;64763;48.928;8.474;2023-04-10T02:42:01;10.63;;;5.78;;
76065;SDS011;64763;48.928;8.474;2023-04-10T02:44:26;11.48;;;6.15;;
76065;SDS011;64763;48.928;8.474;2023-04-10T02:46:51;10.20;;;5.90;;
76065;SDS011;64763;48.928;8.474;2023-04-10T02:49:17;11.18;;;5.55;;
76065;SDS011;64763;48.928;8.474;2023-04-10T02:51:42;9.55;;;5.80;;
76065;SDS011;64763;48.928;8.474;2023-04-10T02:54:07;9.60;;;5.38;;
76065;SDS011;64763;48.928;8.474;2023-04-10T02:56:33;9.60;;;5.50;;
76065;SDS011;64763;48.928;8.474;2023-04-10T02:58:59;10.02;;;5.65;;
76065;SDS011;64763;48.928;8.474;2023-04-10T03:01:24;11.23;;;6.25;;
76065;SDS011;64763;48.928;8.474;2023-04-10T03:03:50;10.98;;;5.65;;
76065;SDS011;64763;48.928;8.474;2023-04-10T03:06:15;11.25;;;5.57;;
76065;SDS011;64763;48.928;8.474;2023-04-10T03:08:41;9.85;;;5.80;;
76065;SDS011;64763;48.928;8.474;2023-04-10T03:11:06;9.73;;;5.75;;
76065;SDS011;64763;48.928;8.474;2023-04-10T03:13:32;10.35;;;5.65;;
76065;SDS011;64763;48.928;8.474;2023-04-10T03:15:58;9.93;;;5.60;;
76065;SDS011;64763;48.928;8.474;2023-04-10T03:18:23;10.85;;;5.97;;
76065;SDS011;64763;48.928;8.474;2023-04-10T03:20:48;9.02;;;5.60;;
76065;SDS011;64763;48.928;8.474;2023-04-10T03:23:14;9.82;;;5.60;;
76065;SDS011;64763;48.928;8.474;2023-04-10T03:25:40;9.00;;;5.35;;
76065;SDS011;64763;48.928;8.474;2023-04-10T03:28:06;9.32;;;5.20;;
76065;SDS011;64763;48.928;8.474;2023-04-10T03:30:31;10.05;;;5.70;;
76065;SDS011;64763;48.928;8.474;2023-04-10T03:32:59;8.80;;;5.00;;
76065;SDS011;64763;48.928;8.474;2023-04-10T03:35:24;9.88;;;5.03;;
76065;SDS011;64763;48.928;8.474;2023-04-10T03:37:49;11.55;;;6.00;;
76065;SDS011;64763;48.928;8.474;2023-04-10T03:40:15;7.72;;;4.65;;
76065;SDS011;64763;48.928;8.474;2023-04-10T03:42:40;9.52;;;5.63;;
76065;SDS011;64763;48.928;8.474;2023-04-10T03:45:06;8.93;;;5.30;;
76065;SDS011;64763;48.928;8.474;2023-04-10T03:47:32;8.68;;;5.60;;
76065;SDS011;64763;48.928;8.474;2023-04-10T03:49:58;9.15;;;5.80;;
76065;SDS011;64763;48.928;8.474;2023-04-10T03:52:24;10.02;;;5.45;;
76065;SDS011;64763;48.928;8.474;2023-04-10T03:54:50;8.70;;;6.05;;
76065;SDS011;64763;48.928;8.474;2023-04-10T03:57:16;9.52;;;5.10;;
76065;SDS011;64763;48.928;8.474;2023-04-10T03:59:42;8.65;;;5.72;;
76065;SDS011;64763;48.928;8.474;2023-04-10T04:02:08;8.15;;;5.30;;
76065;SDS011;64763;48.928;8.474;2023-04-10T04:04:33;9.32;;;5.07;;
76065;SDS011;64763;48.928;8.474;2023-04-10T04:06:58;9.13;;;5.60;;
76065;SDS011;64763;48.928;8.474;2023-04-10T04:09:24;10.48;;;5.85;;
76065;SDS011;64763;48.928;8.474;2023-04-10T04:11:49;8.00;;;4.70;;
76065;SDS011;64763;48.928;8.474;2023-04-10T04:14:14;8.77;;;5.20;;
76065;SDS011;64763;48.928;8.474;2023-04-10T04:16:40;9.43;;;5.40;;
76065;SDS011;64763;48.928;8.474;2023-04-10T04:19:05;7.68;;;5.10;;
76065;SDS011;64763;48.928;8.474;2023-04-10T04:21:32;9.23;;;5.53;;
76065;SDS011;64763;48.928;8.474;2023-04-10T04:23:57;9.18;;;5.25;;
76065;SDS011;64763;48.928;8.474;2023-04-10T04:26:22;10.52;;;5.80;;
76065;SDS011;64763;48.928;8.474;2023-04-10T04:28:49;9.35;;;4.97;;
76065;SDS011;64763;48.928;8.474;2023-04-10T04:31:16;7.88;;;4.97;;
76065;SDS011;64763;48.928;8.474;2023-04-10T04:33:41;9.27;;;4.82;;
76065;SDS011;64763;48.928;8.474;2023-04-10T04:36:06;9.27;;;5.45;;
76065;SDS011;64763;48.928;8.474;2023-04-10T04:38:32;8.20;;;5.60;;
76065;SDS011;64763;48.928;8.474;2023-04-10T04:40:57;8.73;;;5.45;;
76065;SDS011;64763;48.928;8.474;2023-04-10T04:43:22;10.80;;;5.82;;
76065;SDS011;64763;48.928;8.474;2023-04-10T04:45:48;10.10;;;5.50;;
76065;SDS011;64763;48.928;8.474;2023-04-10T04:48:13;7.28;;;4.72;;
76065;SDS011;64763;48.928;8.474;2023-04-10T04:50:39;7.70;;;4.43;;
76065;SDS011;64763;48.928;8.474;2023-04-10T04:53:05;7.82;;;4.80;;
76065;SDS011;64763;48.928;8.474;2023-04-10T04:55:31;8.30;;;4.63;;
76065;SDS011;64763;48.928;8.474;2023-04-10T04:57:57;7.15;;;4.15;;
76065;SDS011;64763;48.928;8.474;2023-04-10T05:00:22;10.43;;;4.72;;
76065;SDS011;64763;48.928;8.474;2023-04-10T05:02:47;7.47;;;4.80;;
76065;SDS011;64763;48.928;8.474;2023-04-10T05:05:13;7.45;;;4.70;;
76065;SDS011;64763;48.928;8.474;2023-04-10T05:07:38;8.90;;;5.10;;
76065;SDS011;64763;48.928;8.474;2023-04-10T05:10:04;7.22;;;4.60;;
76065;SDS011;64763;48.928;8.474;2023-04-10T05:12:30;6.47;;;4.15;;
76065;SDS011;64763;48.928;8.474;2023-04-10T05:14:56;7.22;;;4.38;;
76065;SDS011;64763;48.928;8.474;2023-04-10T05:17:21;8.80;;;4.63;;
76065;SDS011;64763;48.928;8.474;2023-04-10T05:19:46;7.22;;;4.90;;
76065;SDS011;64763;48.928;8.474;2023-04-10T05:22:12;7.40;;;4.50;;
76065;SDS011;64763;48.928;8.474;2023-04-10T05:24:37;7.43;;;4.50;;
76065;SDS011;64763;48.928;8.474;2023-04-10T05:27:02;8.38;;;4.93;;
76065;SDS011;64763;48.928;8.474;2023-04-10T05:29:28;6.63;;;4.18;;
76065;SDS011;64763;48.928;8.474;2023-04-10T05:31:53;8.10;;;4.80;;
76065;SDS011;64763;48.928;8.474;2023-04-10T05:34:18;7.75;;;4.60;;
76065;SDS011;64763;48.928;8.474;2023-04-10T05:36:44;8.05;;;4.35;;
76065;SDS011;64763;48.928;8.474;2023-04-10T05:39:09;7.25;;;4.40;;
76065;SDS011;64763;48.928;8.474;2023-04-10T05:41:35;7.85;;;4.18;;
76065;SDS011;64763;48.928;8.474;2023-04-10T05:44:00;6.82;;;3.53;;
76065;SDS011;64763;48.928;8.474;2023-04-10T05:46:25;7.38;;;4.28;;
76065;SDS011;64763;48.928;8.474;2023-04-10T05:48:51;8.18;;;4.43;;
76065;SDS011;64763;48.928;8.474;2023-04-10T05:51:17;6.53;;;4.20;;
76065;SDS011;64763;48.928;8.474;2023-04-10T05:53:42;7.45;;;4.47;;
76065;SDS011;64763;48.928;8.474;2023-04-10T05:56:07;7.72;;;4.82;;
76065;SDS011;64763;48.928;8.474;2023-04-10T05:58:33;7.18;;;4.45;;
76065;SDS011;64763;48.928;8.474;2023-04-10T06:00:58;7.68;;;4.70;;
76065;SDS011;64763;48.928;8.474;2023-04-10T06:03:24;7.18;;;4.43;;
76065;SDS011;64763;48.928;8.474;2023-04-10T06:05:51;6.97;;;3.78;;
76065;SDS011;64763;48.928;8.474;2023-04-10T06:08:17;6.43;;;4.43;;
76065;SDS011;64763;48.928;8.474;2023-04-10T06:10:43;7.18;;;4.28;;
76065;SDS011;64763;48.928;8.474;2023-04-10T06:13:10;6.78;;;4.43;;
76065;SDS011;64763;48.928;8.474;2023-04-10T06:15:36;6.20;;;3.92;;
76065;SDS011;64763;48.928;8.474;2023-04-10T06:18:01;6.93;;;4.47;;
76065;SDS011;64763;48.928;8.474;2023-04-10T06:20:26;8.05;;;4.45;;
76065;SDS011;64763;48.928;8.474;2023-04-10T06:22:52;7.50;;;4.05;;
76065;SDS011;64763;48.928;8.474;2023-04-10T06:25:17;6.45;;;4.78;;
76065;SDS011;64763;48.928;8.474;2023-04-10T06:27:43;7.55;;;4.60;;
76065;SDS011;64763;48.928;8.474;2023-04-10T06:30:08;6.40;;;4.25;;
76065;SDS011;64763;48.928;8.474;2023-04-10T06:32:34;5.45;;;3.95;;
76065;SDS011;64763;48.928;8.474;2023-04-10T06:35:00;5.40;;;3.63;;
76065;SDS011;64763;48.928;8.474;2023-04-10T06:37:28;7.80;;;4.32;;
76065;SDS011;64763;48.928;8.474;2023-04-10T06:40:03;7.30;;;3.97;;
76065;SDS011;64763;48.928;8.474;2023-04-10T06:42:38;8.45;;;3.92;;
76065;SDS011;64763;48.928;8.474;2023-04-10T06:45:05;7.38;;;4.10;;
76065;SDS011;64763;48.928;8.474;2023-04-10T06:47:31;6.88;;;4.03;;
76065;SDS011;64763;48.928;8.474;2023-04-10T06:49:56;6.88;;;3.63;;
76065;SDS011;64763;48.928;8.474;2023-04-10T06:52:21;7.78;;;3.75;;
76065;SDS011;64763;48.928;8.474;2023-04-10T06:54:47;6.32;;;3.85;;
76065;SDS011;64763;48.928;8.474;2023-04-10T06:57:12;7.60;;;4.10;;
76065;SDS011;64763;48.928;8.474;2023-04-10T06:59:37;6.30;;;3.35;;
76065;SDS011;64763;48.928;8.474;2023-04-10T07:02:03;5.85;;;3.55;;
76065;SDS011;64763;48.928;8.474;2023-04-10T07:04:28;6.20;;;4.28;;
76065;SDS011;64763;48.928;8.474;2023-04-10T07:06:53;6.50;;;4.13;;
76065;SDS011;64763;48.928;8.474;2023-04-10T07:09:19;6.03;;;4.18;;
76065;SDS011;64763;48.928;8.474;2023-04-10T07:11:45;6.95;;;4.10;;
76065;SDS011;64763;48.928;8.474;2023-04-10T07:14:10;6.03;;;3.70;;
76065;SDS011;64763;48.928;8.474;2023-04-10T07:16:35;5.20;;;3.50;;
76065;SDS011;64763;48.928;8.474;2023-04-10T07:19:01;6.05;;;3.78;;
76065;SDS011;64763;48.928;8.474;2023-04-10T07:21:26;5.82;;;3.90;;
76065;SDS011;64763;48.928;8.474;2023-04-10T07:23:52;5.10;;;3.35;;
76065;SDS011;64763;48.928;8.474;2023-04-10T07:26:18;5.35;;;3.50;;
76065;SDS011;64763;48.928;8.474;2023-04-10T07:28:43;5.65;;;3.65;;
76065;SDS011;64763;48.928;8.474;2023-04-10T07:31:09;6.20;;;3.97;;
76065;SDS011;64763;48.928;8.474;2023-04-10T07:33:35;5.38;;;3.50;;
76065;SDS011;64763;48.928;8.474;2023-04-10T07:36:01;5.78;;;3.70;;
76065;SDS011;64763;48.928;8.474;2023-04-10T07:38:27;5.35;;;3.75;;
76065;SDS011;64763;48.928;8.474;2023-04-10T07:40:56;5.50;;;3.45;;
76065;SDS011;64763;48.928;8.474;2023-04-10T07:43:22;5.03;;;3.30;;
76065;SDS011;64763;48.928;8.474;2023-04-10T07:45:47;5.47;;;3.47;;
76065;SDS011;64763;48.928;8.474;2023-04-10T07:48:13;5.50;;;3.47;;
76065;SDS011;64763;48.928;8.474;2023-04-10T07:50:38;4.75;;;3.58;;
76065;SDS011;64763;48.928;8.474;2023-04-10T07:53:03;4.22;;;3.10;;
76065;SDS011;64763;48.928;8.474;2023-04-10T07:55:35;4.72;;;3.22;;
76065;SDS011;64763;48.928;8.474;2023-04-10T07:58:02;5.07;;;3.30;;
76065;SDS011;64763;48.928;8.474;2023-04-10T08:00:29;5.93;;;3.28;;
76065;SDS011;64763;48.928;8.474;2023-04-10T08:02:55;5.03;;;3.13;;
76065;SDS011;64763;48.928;8.474;2023-04-10T08:05:20;4.80;;;3.30;;
76065;SDS011;64763;48.928;8.474;2023-04-10T08:07:45;4.75;;;2.85;;
76065;SDS011;64763;48.928;8.474;2023-04-10T08:10:11;5.28;;;3.47;;
76065;SDS011;64763;48.928;8.474;2023-04-10T08:12:36;4.82;;;3.05;;
76065;SDS011;64763;48.928;8.474;2023-04-10T08:15:01;4.80;;;3.00;;
76065;SDS011;64763;48.928;8.474;2023-04-10T08:17:27;3.65;;;2.47;;
76065;SDS011;64763;48.928;8.474;2023-04-10T08:19:52;5.00;;;2.88;;
76065;SDS011;64763;48.928;8.474;2023-04-10T08:22:18;4.07;;;2.42;;
76065;SDS011;64763;48.928;8.474;2023-04-10T08:24:43;4.43;;;2.70;;
76065;SDS011;64763;48.928;8.474;2023-04-10T08:27:08;4.03;;;2.67;;
76065;SDS011;64763;48.928;8.474;2023-04-10T08:29:34;4.10;;;2.70;;
76065;SDS011;64763;48.928;8.474;2023-04-10T08:31:59;3.53;;;2.35;;
76065;SDS011;64763;48.928;8.474;2023-04-10T08:34:25;3.90;;;2.67;;
76065;SDS011;64763;48.928;8.474;2023-04-10T08:36:51;4.25;;;2.80;;
76065;SDS011;64763;48.928;8.474;2023-04-10T08:39:16;4.00;;;2.63;;
76065;SDS011;64763;48.928;8.474;2023-04-10T08:41:42;3.22;;;2.30;;
76065;SDS011;64763;48.928;8.474;2023-04-10T08:44:07;3.00;;;2.00;;
76065;SDS011;64763;48.928;8.474;2023-04-10T08:46:33;4.10;;;2.72;;
76065;SDS011;64763;48.928;8.474;2023-04-10T08:49:00;3.97;;;2.60;;
76065;SDS011;64763;48.928;8.474;2023-04-10T08:51:45;3.70;;;2.22;;
76065;SDS011;64763;48.928;8.474;2023-04-10T08:54:20;3.92;;;2.60;;
76065;SDS011;64763;48.928;8.474;2023-04-10T08:56:53;4.75;;;2.88;;
76065;SDS011;64763;48.928;8.474;2023-04-10T08:59:19;3.00;;;2.10;;
76065;SDS011;64763;48.928;8.474;2023-04-10T09:01:45;3.67;;;2.33;;
76065;SDS011;64763;48.928;8.474;2023-04-10T09:04:13;3.58;;;2.17;;
76065;SDS011;64763;48.928;8.474;2023-04-10T09:06:38;4.15;;;2.22;;
76065;SDS011;64763;48.928;8.474;2023-04-10T09:09:07;2.88;;;1.98;;
76065;SDS011;64763;48.928;8.474;2023-04-10T09:16:46;3.17;;;2.10;;
76065;SDS011;64763;48.928;8.474;2023-04-10T09:19:11;4.97;;;2.15;;
76065;SDS011;64763;48.928;8.474;2023-04-10T09:21:37;3.00;;;2.17;;
76065;SDS011;64763;48.928;8.474;2023-04-10T09:24:02;3.05;;;1.98;;
76065;SDS011;64763;48.928;8.474;2023-04-10T09:26:29;3.38;;;2.00;;
76065;SDS011;64763;48.928;8.474;2023-04-10T09:34:06;4.18;;;2.03;;
76065;SDS011;64763;48.928;8.474;2023-04-10T09:36:31;3.33;;;2.20;;
76065;SDS011;64763;48.928;8.474;2023-04-10T09:38:57;3.03;;;2.35;;
76065;SDS011;64763;48.928;8.474;2023-04-10T09:41:22;3.42;;;2.13;;
76065;SDS011;64763;48.928;8.474;2023-04-10T09:43:47;2.60;;;2.00;;
76065;SDS011;64763;48.928;8.474;2023-04-10T09:46:13;2.70;;;1.77;;
76065;SDS011;64763;48.928;8.474;2023-04-10T09:48:53;2.65;;;1.83;;
76065;SDS011;64763;48.928;8.474;2023-04-10T09:51:30;4.75;;;3.20;;
76065;SDS011;64763;48.928;8.474;2023-04-10T09:53:56;3.00;;;1.85;;
76065;SDS011;64763;48.928;8.474;2023-04-10T09:56:22;2.85;;;2.03;;
76065;SDS011;64763;48.928;8.474;2023-04-10T09:58:50;3.00;;;2.10;;
76065;SDS011;64763;48.928;8.474;2023-04-10T10:01:16;3.03;;;1.92;;
76065;SDS011;64763;48.928;8.474;2023-04-10T10:03:41;2.58;;;1.70;;
76065;SDS011;64763;48.928;8.474;2023-04-10T10:06:07;2.67;;;1.92;;
76065;SDS011;64763;48.928;8.474;2023-04-10T10:08:35;3.15;;;2.08;;
76065;SDS011;64763;48.928;8.474;2023-04-10T10:11:01;2.63;;;1.70;;
76065;SDS011;64763;48.928;8.474;2023-04-10T10:18:43;3.00;;;2.10;;
76065;SDS011;64763;48.928;8.474;2023-04-10T10:21:10;2.85;;;1.65;;
76065;SDS011;64763;48.928;8.474;2023-04-10T10:23:37;2.67;;;2.00;;
76065;SDS011;64763;48.928;8.474;2023-04-10T10:26:04;4.93;;;2.03;;
76065;SDS011;64763;48.928;8.474;2023-04-10T10:28:30;2.72;;;1.55;;
76065;SDS011;64763;48.928;8.474;2023-04-10T10:30:57;2.80;;;1.67;;
76065;SDS011;64763;48.928;8.474;2023-04-10T10:33:24;3.30;;;1.80;;
76065;SDS011;64763;48.928;8.474;2023-04-10T10:35:50;3.45;;;2.35;;
76065;SDS011;64763;48.928;8.474;2023-04-10T10:38:15;3.10;;;2.33;;
76065;SDS011;64763;48.928;8.474;2023-04-10T10:46:01;3.15;;;2.13;;
76065;SDS011;64763;48.928;8.474;2023-04-10T10:48:28;3.08;;;2.33;;
76065;SDS011;64763;48.928;8.474;2023-04-10T10:50:57;3.08;;;2.13;;
76065;SDS011;64763;48.928;8.474;2023-04-10T10:53:40;2.83;;;2.00;;
76065;SDS011;64763;48.928;8.474;2023-04-10T10:58:48;3.75;;;2.63;;
76065;SDS011;64763;48.928;8.474;2023-04-10T11:01:14;3.47;;;2.40;;
76065;SDS011;64763;48.928;8.474;2023-04-10T11:03:40;4.30;;;2.83;;
76065;SDS011;64763;48.928;8.474;2023-04-10T11:06:06;3.45;;;2.30;;
76065;SDS011;64763;48.928;8.474;2023-04-10T11:11:04;3.53;;;2.20;;
76065;SDS011;64763;48.928;8.474;2023-04-10T11:13:34;3.30;;;2.20;;
76065;SDS011;64763;48.928;8.474;2023-04-10T11:16:01;3.65;;;2.30;;
76065;SDS011;64763;48.928;8.474;2023-04-10T11:29:44;4.68;;;2.45;;
76065;SDS011;64763;48.928;8.474;2023-04-10T11:31:54;3.25;;;2.28;;
76065;SDS011;64763;48.928;8.474;2023-04-10T11:34:23;3.17;;;2.05;;
76065;SDS011;64763;48.928;8.474;2023-04-10T11:36:49;3.05;;;2.15;;
76065;SDS011;64763;48.928;8.474;2023-04-10T11:39:14;3.33;;;2.13;;
76065;SDS011;64763;48.928;8.474;2023-04-10T11:41:43;3.50;;;2.00;;
76065;SDS011;64763;48.928;8.474;2023-04-10T11:44:26;3.00;;;1.95;;
76065;SDS011;64763;48.928;8.474;2023-04-10T11:46:52;4.35;;;2.40;;
76065;SDS011;64763;48.928;8.474;2023-04-10T11:51:47;3.20;;;2.20;;
76065;SDS011;64763;48.928;8.474;2023-04-10T11:54:17;3.78;;;2.63;;
76065;SDS011;64763;48.928;8.474;2023-04-10T11:59:27;3.40;;;2.20;;
76065;SDS011;64763;48.928;8.474;2023-04-10T12:02:03;2.80;;;1.90;;
76065;SDS011;64763;48.928;8.474;2023-04-10T12:04:30;4.68;;;2.40;;
76065;SDS011;64763;48.928;8.474;2023-04-10T12:06:55;2.90;;;2.13;;
76065;SDS011;64763;48.928;8.474;2023-04-10T12:09:21;3.90;;;2.50;;
76065;SDS011;64763;48.928;8.474;2023-04-10T12:11:57;3.45;;;2.45;;
76065;SDS011;64763;48.928;8.474;2023-04-10T12:14:28;3.58;;;2.28;;
76065;SDS011;64763;48.928;8.474;2023-04-10T12:19:20;3.80;;;2.50;;
76065;SDS011;64763;48.928;8.474;2023-04-10T12:21:47;3.15;;;2.17;;
76065;SDS011;64763;48.928;8.474;2023-04-10T12:24:15;3.58;;;2.50;;
76065;SDS011;64763;48.928;8.474;2023-04-10T12:27:27;2.97;;;2.20;;
76065;SDS011;64763;48.928;8.474;2023-04-10T12:29:53;4.18;;;2.40;;
76065;SDS011;64763;48.928;8.474;2023-04-10T12:32:20;3.72;;;2.35;;
76065;SDS011;64763;48.928;8.474;2023-04-10T12:34:49;3.08;;;2.17;;
76065;SDS011;64763;48.928;8.474;2023-04-10T12:37:15;3.60;;;2.25;;
76065;SDS011;64763;48.928;8.474;2023-04-10T12:39:41;4.88;;;2.60;;
76065;SDS011;64763;48.928;8.474;2023-04-10T12:42:13;3.17;;;2.30;;
76065;SDS011;64763;48.928;8.474;2023-04-10T12:44:51;3.20;;;2.38;;
76065;SDS011;64763;48.928;8.474;2023-04-10T12:47:18;3.20;;;2.20;;
76065;SDS011;64763;48.928;8.474;2023-04-10T12:50:05;4.13;;;2.47;;
76065;SDS011;64763;48.928;8.474;2023-04-10T12:52:33;3.42;;;2.30;;
76065;SDS011;64763;48.928;8.474;2023-04-10T12:57:33;3.25;;;2.40;;
76065;SDS011;64763;48.928;8.474;2023-04-10T12:59:59;4.13;;;2.40;;
76065;SDS011;64763;48.928;8.474;2023-04-10T13:02:27;4.28;;;2.30;;
76065;SDS011;64763;48.928;8.474;2023-04-10T13:04:53;3.10;;;2.25;;
76065;SDS011;64763;48.928;8.474;2023-04-10T13:07:19;2.80;;;2.10;;
76065;SDS011;64763;48.928;8.474;2023-04-10T13:09:44;3.63;;;2.40;;
76065;SDS011;64763;48.928;8.474;2023-04-10T13:12:10;3.13;;;2.38;;
76065;SDS011;64763;48.928;8.474;2023-04-10T13:14:36;3.38;;;2.60;;
76065;SDS011;64763;48.928;8.474;2023-04-10T13:17:01;3.25;;;2.45;;
76065;SDS011;64763;48.928;8.474;2023-04-10T13:19:27;3.40;;;2.83;;
76065;SDS011;64763;48.928;8.474;2023-04-10T13:21:52;3.70;;;2.60;;
76065;SDS011;64763;48.928;8.474;2023-04-10T13:24:17;4.40;;;2.53;;
76065;SDS011;64763;48.928;8.474;2023-04-10T13:26:43;3.83;;;2.55;;
76065;SDS011;64763;48.928;8.474;2023-04-10T13:29:08;4.47;;;2.67;;
76065;SDS011;64763;48.928;8.474;2023-04-10T13:31:33;3.67;;;2.47;;
76065;SDS011;64763;48.928;8.474;2023-04-10T13:33:59;3.42;;;2.10;;
76065;SDS011;64763;48.928;8.474;2023-04-10T13:36:24;3.53;;;2.30;;
76065;SDS011;64763;48.928;8.474;2023-04-10T13:38:50;3.00;;;2.28;;
76065;SDS011;64763;48.928;8.474;2023-04-10T13:41:16;3.85;;;2.60;;
76065;SDS011;64763;48.928;8.474;2023-04-10T13:43:41;3.75;;;2.58;;
76065;SDS011;64763;48.928;8.474;2023-04-10T13:46:06;3.53;;;2.60;;
76065;SDS011;64763;48.928;8.474;2023-04-10T13:48:32;3.33;;;2.40;;
76065;SDS011;64763;48.928;8.474;2023-04-10T13:50:57;3.58;;;2.55;;
76065;SDS011;64763;48.928;8.474;2023-04-10T13:53:22;3.95;;;2.38;;
76065;SDS011;64763;48.928;8.474;2023-04-10T13:55:48;3.00;;;2.20;;
76065;SDS011;64763;48.928;8.474;2023-04-10T13:58:14;3.42;;;2.33;;
76065;SDS011;64763;48.928;8.474;2023-04-10T14:00:41;3.45;;;2.80;;
76065;SDS011;64763;48.928;8.474;2023-04-10T14:03:07;3.13;;;2.38;;
76065;SDS011;64763;48.928;8.474;2023-04-10T14:05:34;3.67;;;2.22;;
76065;SDS011;64763;48.928;8.474;2023-04-10T14:08:00;3.00;;;2.15;;
76065;SDS011;64763;48.928;8.474;2023-04-10T14:10:25;3.92;;;2.30;;
76065;SDS011;64763;48.928;8.474;2023-04-10T14:12:50;3.15;;;2.33;;
76065;SDS011;64763;48.928;8.474;2023-04-10T14:15:16;2.95;;;2.28;;
76065;SDS011;64763;48.928;8.474;2023-04-10T14:17:41;3.53;;;2.50;;
76065;SDS011;64763;48.928;8.474;2023-04-10T14:20:06;3.38;;;2.13;;
76065;SDS011;64763;48.928;8.474;2023-04-10T14:22:35;3.13;;;2.40;;
76065;SDS011;64763;48.928;8.474;2023-04-10T14:25:00;3.70;;;2.45;;
76065;SDS011;64763;48.928;8.474;2023-04-10T14:27:25;3.35;;;2.10;;
76065;SDS011;64763;48.928;8.474;2023-04-10T14:29:51;3.17;;;2.35;;
76065;SDS011;64763;48.928;8.474;2023-04-10T14:32:16;3.38;;;2.20;;
76065;SDS011;64763;48.928;8.474;2023-04-10T14:34:41;3.03;;;2.30;;
76065;SDS011;64763;48.928;8.474;2023-04-10T14:37:07;4.07;;;2.60;;
76065;SDS011;64763;48.928;8.474;2023-04-10T14:39:33;4.25;;;2.55;;
76065;SDS011;64763;48.928;8.474;2023-04-10T14:41:59;3.33;;;2.05;;
76065;SDS011;64763;48.928;8.474;2023-04-10T14:44:26;6.47;;;2.30;;
76065;SDS011;64763;48.928;8.474;2023-04-10T14:46:51;4.53;;;2.38;;
76065;SDS011;64763;48.928;8.474;2023-04-10T14:49:16;3.33;;;2.50;;
76065;SDS011;64763;48.928;8.474;2023-04-10T14:51:42;3.17;;;2.63;;
76065;SDS011;64763;48.928;8.474;2023-04-10T14:54:08;3.90;;;2.35;;
76065;SDS011;64763;48.928;8.474;2023-04-10T14:56:34;3.25;;;2.38;;
76065;SDS011;64763;48.928;8.474;2023-04-10T14:58:59;3.20;;;2.28;;
76065;SDS011;64763;48.928;8.474;2023-04-10T15:01:25;3.70;;;2.40;;
76065;SDS011;64763;48.928;8.474;2023-04-10T15:03:50;3.20;;;2.20;;
76065;SDS011;64763;48.928;8.474;2023-04-10T15:06:17;3.55;;;2.45;;
76065;SDS011;64763;48.928;8.474;2023-04-10T15:08:42;3.22;;;2.22;;
76065;SDS011;64763;48.928;8.474;2023-04-10T15:11:07;5.25;;;3.00;;
76065;SDS011;64763;48.928;8.474;2023-04-10T15:13:33;3.72;;;2.50;;
76065;SDS011;64763;48.928;8.474;2023-04-10T15:15:58;3.47;;;2.45;;
76065;SDS011;64763;48.928;8.474;2023-04-10T15:18:24;3.60;;;2.35;;
76065;SDS011;64763;48.928;8.474;2023-04-10T15:20:50;3.60;;;2.53;;
76065;SDS011;64763;48.928;8.474;2023-04-10T15:23:16;3.95;;;2.58;;
76065;SDS011;64763;48.928;8.474;2023-04-10T15:25:42;3.65;;;2.55;;
76065;SDS011;64763;48.928;8.474;2023-04-10T15:28:07;4.68;;;2.38;;
76065;SDS011;64763;48.928;8.474;2023-04-10T15:30:32;3.75;;;2.35;;
76065;SDS011;64763;48.928;8.474;2023-04-10T15:32:58;3.55;;;2.70;;
76065;SDS011;64763;48.928;8.474;2023-04-10T15:35:23;4.13;;;2.85;;
76065;SDS011;64763;48.928;8.474;2023-04-10T15:37:50;3.95;;;2.45;;
76065;SDS011;64763;48.928;8.474;2023-04-10T15:40:16;4.70;;;2.70;;
76065;SDS011;64763;48.928;8.474;2023-04-10T15:42:41;3.88;;;2.70;;
76065;SDS011;64763;48.928;8.474;2023-04-10T15:45:07;4.82;;;3.17;;
76065;SDS011;64763;48.928;8.474;2023-04-10T15:47:32;6.00;;;3.17;;